Time;durP1;ratioP1;P1;durP2;ratioP2;P2;SDS_P1;SDS_P2;PMS_P1;PMS_P2;Temp;Humidity;BMP_temperature;BMP_pressure;BME280_temperature;BME280_humidity;BME280_pressure;Samples;Min_cycle;Max_cycle;Signal;HPM_P1;HPM_P2
2022/10/27 00:01:28;;;;;;;13.10;7.90;;;;;;;7.34;95.78;101997.92;107860;1259;68626;-70
2022/10/27 00:03:57;;;;;;;11.50;7.60;;;;;;;7.36;96.04;101995.42;107864;1260;63618;-71
2022/10/27 00:06:25;;;;;;;10.80;8.10;;;;;;;7.39;98.29;101998.63;107858;1261;62862;-71
2022/10/27 00:08:54;;;;;;;11.10;7.90;;;;;;;7.43;97.90;102001.08;107890;1262;57760;-70
2022/10/27 00:11:23;;;;;;;10.20;6.90;;;;;;;7.50;97.03;102006.35;107855;1264;72600;-69
2022/10/27 00:13:51;;;;;;;14.00;7.90;;;;;;;7.55;97.54;102010.10;107895;1255;71824;-70
2022/10/27 00:16:20;;;;;;;10.90;6.90;;;;;;;7.59;96.91;102005.80;107647;1264;59647;-70
2022/10/27 00:18:49;;;;;;;12.50;8.10;;;;;;;7.58;97.89;102009.30;107596;1264;73734;-70
2022/10/27 00:21:20;;;;;;;11.40;8.10;;;;;;;7.61;97.39;102008.65;107719;1260;57721;-71
2022/10/27 00:23:50;;;;;;;9.90;7.70;;;;;;;7.70;100.00;102010.55;107568;1255;61785;-71
2022/10/27 00:26:20;;;;;;;12.30;7.80;;;;;;;7.80;100.00;102012.62;107509;1261;75321;-70
2022/10/27 00:28:49;;;;;;;10.40;7.80;;;;;;;7.84;99.74;102008.63;107762;1261;61270;-70
2022/10/27 00:31:21;;;;;;;11.30;7.80;;;;;;;7.87;99.01;102011.30;107688;1255;69526;-70
2022/10/27 00:33:50;;;;;;;11.60;7.90;;;;;;;7.86;98.92;102007.67;107851;1255;74869;-72
2022/10/27 00:36:22;;;;;;;13.40;8.00;;;;;;;7.84;98.26;102005.66;107829;1263;62391;-71
2022/10/27 00:38:58;;;;;;;11.70;7.80;;;;;;;7.82;98.03;102006.30;107712;1270;58342;-70
2022/10/27 00:41:36;;;;;;;10.90;7.80;;;;;;;7.77;98.19;102001.79;107636;1261;62862;-70
2022/10/27 00:44:37;;;;;;;11.40;7.40;;;;;;;7.73;97.36;102005.23;107848;1258;61495;-70
2022/10/27 00:47:32;;;;;;;14.50;8.50;;;;;;;7.66;97.09;102002.74;107677;1267;59104;-69
2022/10/27 00:50:11;;;;;;;13.10;8.50;;;;;;;7.62;98.03;102003.27;107619;1271;73410;-69
2022/10/27 00:52:52;;;;;;;13.00;7.70;;;;;;;7.60;99.30;102006.97;107697;1263;58280;-71
2022/10/27 00:55:33;;;;;;;10.50;7.60;;;;;;;7.58;98.83;102004.82;107471;1263;61240;-71
2022/10/27 00:58:07;;;;;;;11.30;8.00;;;;;;;7.53;99.74;102008.81;107728;1268;63584;-70
2022/10/27 01:00:38;;;;;;;11.80;7.60;;;;;;;7.50;100.00;102011.70;107825;1255;72044;-70
2022/10/27 01:03:10;;;;;;;12.80;6.80;;;;;;;7.48;99.26;102012.98;107652;1260;60229;-71
2022/10/27 01:05:40;;;;;;;12.30;7.60;;;;;;;7.47;97.98;102011.31;107633;1260;73742;-69
2022/10/27 01:08:08;;;;;;;10.50;7.20;;;;;;;7.40;97.81;102005.66;107681;1260;62350;-70
2022/10/27 01:10:37;;;;;;;12.20;7.20;;;;;;;7.35;98.76;102005.37;107692;1260;58869;-70
2022/10/27 01:13:06;;;;;;;11.60;7.20;;;;;;;7.30;99.98;102010.23;107718;1263;74358;-70
2022/10/27 01:15:54;;;;;;;11.80;8.20;;;;;;;7.29;100.00;102013.02;107418;1269;72359;-70
2022/10/27 01:18:31;;;;;;;10.60;7.80;;;;;;;7.29;100.00;102013.89;107664;1270;70074;-70
2022/10/27 01:21:49;;;;;;;11.40;7.20;;;;;;;7.28;100.00;102013.27;107737;1260;74238;-71
2022/10/27 01:24:51;;;;;;;12.30;7.60;;;;;;;7.25;99.55;102014.55;107608;1264;62645;-70
2022/10/27 01:27:41;;;;;;;13.00;7.90;;;;;;;7.23;98.37;102016.72;107570;1270;58252;-69
2022/10/27 01:30:18;;;;;;;13.20;7.80;;;;;;;7.24;99.00;102017.70;107617;1261;74244;-69
2022/10/27 01:33:14;;;;;;;14.20;8.30;;;;;;;7.26;100.00;102021.13;107598;1270;72489;-71
2022/10/27 01:36:00;;;;;;;11.60;8.10;;;;;;;7.25;99.83;102024.26;107655;1257;62208;-70
2022/10/27 01:38:51;;;;;;;15.90;8.70;;;;;;;7.27;99.83;102026.13;107632;1261;63464;-69
2022/10/27 01:41:29;;;;;;;10.40;8.00;;;;;;;7.23;99.44;102027.66;107527;1266;61055;-69
2022/10/27 01:44:05;;;;;;;13.50;9.00;;;;;;;7.15;99.87;102031.92;107500;1263;58261;-70
2022/10/27 01:46:35;;;;;;;16.40;9.30;;;;;;;7.11;100.00;102035.55;107535;1265;73303;-71
2022/10/27 01:49:05;;;;;;;10.40;8.10;;;;;;;7.08;100.00;102038.41;107565;1253;72793;-70
2022/10/27 01:51:33;;;;;;;15.20;7.90;;;;;;;7.03;100.00;102039.30;107464;1265;60251;-69
2022/10/27 01:54:04;;;;;;;12.20;8.40;;;;;;;6.98;100.00;102040.16;107552;1260;73080;-71
2022/10/27 01:56:57;;;;;;;14.30;9.50;;;;;;;6.94;100.00;102039.96;107682;1256;61847;-70
2022/10/27 01:59:38;;;;;;;14.90;10.30;;;;;;;6.89;100.00;102041.52;107595;1263;58136;-74
2022/10/27 02:02:23;;;;;;;15.90;9.10;;;;;;;6.85;100.00;102042.72;107781;1268;74248;-70
2022/10/27 02:05:24;;;;;;;13.30;9.10;;;;;;;6.82;100.00;102042.84;107927;1264;61910;-72
2022/10/27 02:08:11;;;;;;;12.10;8.80;;;;;;;6.78;100.00;102048.33;107686;1267;59897;-70
2022/10/27 02:11:05;;;;;;;14.20;8.90;;;;;;;6.75;100.00;102053.46;107690;1264;72060;-69
2022/10/27 02:13:38;;;;;;;12.70;9.40;;;;;;;6.72;100.00;102061.89;107760;1260;61418;-71
2022/10/27 02:16:19;;;;;;;16.60;9.30;;;;;;;6.67;100.00;102063.10;107672;1264;58201;-71
2022/10/27 02:19:00;;;;;;;14.40;9.20;;;;;;;6.62;100.00;102061.70;107712;1260;62982;-70
2022/10/27 02:21:32;;;;;;;15.90;8.90;;;;;;;6.58;100.00;102057.86;107763;1257;60753;-69
2022/10/27 02:24:01;;;;;;;14.50;8.90;;;;;;;6.52;100.00;102057.53;107693;1260;70310;-71
2022/10/27 02:26:50;;;;;;;13.00;8.60;;;;;;;6.48;100.00;102060.09;107790;1260;63561;-70
2022/10/27 02:29:26;;;;;;;14.60;8.40;;;;;;;6.44;100.00;102064.90;107452;1261;62852;-69
2022/10/27 02:31:59;;;;;;;13.00;8.40;;;;;;;6.39;100.00;102062.80;107666;1266;60198;-71
2022/10/27 02:34:30;;;;;;;14.40;7.70;;;;;;;6.33;100.00;102070.13;107677;1264;74242;-71
2022/10/27 02:36:59;;;;;;;12.80;8.50;;;;;;;6.29;99.98;102069.39;107782;1261;72187;-72
2022/10/27 02:39:27;;;;;;;16.70;9.40;;;;;;;6.26;99.82;102074.00;107483;1263;69569;-69
2022/10/27 02:41:56;;;;;;;12.80;8.70;;;;;;;6.21;99.89;102072.41;107757;1260;63503;-70
2022/10/27 02:44:25;;;;;;;15.00;9.00;;;;;;;6.17;100.00;102072.90;107771;1264;62839;-70
2022/10/27 02:46:53;;;;;;;13.10;8.90;;;;;;;6.13;100.00;102071.64;107769;1261;57640;-70
2022/10/27 02:49:22;;;;;;;12.80;8.50;;;;;;;6.11;100.00;102071.00;107786;1259;62912;-71
2022/10/27 02:51:50;;;;;;;13.30;8.30;;;;;;;6.07;100.00;102077.02;107880;1255;72103;-69
2022/10/27 02:54:19;;;;;;;13.60;8.30;;;;;;;6.08;100.00;102078.37;107718;1265;60370;-69
2022/10/27 02:56:48;;;;;;;12.50;7.90;;;;;;;6.06;100.00;102073.41;107808;1261;73787;-71
2022/10/27 02:59:16;;;;;;;13.00;9.20;;;;;;;6.02;100.00;102061.94;107676;1269;58024;-70
2022/10/27 03:01:45;;;;;;;15.30;8.30;;;;;;;6.04;100.00;102076.58;107816;1264;61118;-71
2022/10/27 03:04:14;;;;;;;16.40;9.50;;;;;;;6.07;100.00;102074.08;107854;1267;63622;-70
2022/10/27 03:06:42;;;;;;;11.80;8.10;;;;;;;6.07;100.00;102071.99;107983;1254;71280;-70
2022/10/27 03:09:11;;;;;;;12.50;9.00;;;;;;;6.07;100.00;102074.59;107886;1254;58962;-71
2022/10/27 03:11:40;;;;;;;13.40;8.30;;;;;;;6.04;100.00;102080.22;107868;1267;72716;-70
2022/10/27 03:14:13;;;;;;;12.20;8.00;;;;;;;6.01;100.00;102084.64;107876;1258;61469;-68
2022/10/27 03:16:42;;;;;;;13.50;8.20;;;;;;;5.98;100.00;102087.36;107844;1263;59337;-71
2022/10/27 03:19:10;;;;;;;14.90;9.20;;;;;;;5.95;100.00;102093.49;107732;1263;64517;-70
2022/10/27 03:21:39;;;;;;;12.40;8.90;;;;;;;5.89;100.00;102094.68;107962;1258;60725;-70
2022/10/27 03:24:07;;;;;;;15.00;9.30;;;;;;;5.85;100.00;102094.11;107764;1264;69633;-71
2022/10/27 03:26:36;;;;;;;16.10;9.80;;;;;;;5.80;100.00;102097.02;107759;1270;62843;-69
2022/10/27 03:29:07;;;;;;;14.90;9.30;;;;;;;5.77;100.00;102099.36;107742;1264;61969;-70
2022/10/27 03:31:36;;;;;;;16.20;8.90;;;;;;;5.75;100.00;102102.18;107813;1260;58116;-70
2022/10/27 03:34:05;;;;;;;18.40;12.10;;;;;;;5.70;100.00;102102.50;107862;1256;73439;-70
2022/10/27 03:36:33;;;;;;;13.60;9.10;;;;;;;5.66;100.00;102102.80;107952;1251;61888;-71
2022/10/27 03:39:02;;;;;;;14.10;9.30;;;;;;;5.62;100.00;102105.86;107773;1270;59092;-70
2022/10/27 03:41:31;;;;;;;15.40;9.20;;;;;;;5.59;100.00;102113.04;107796;1263;62404;-70
2022/10/27 03:43:59;;;;;;;14.60;9.80;;;;;;;5.57;100.00;102113.43;107866;1259;61552;-70
2022/10/27 03:46:28;;;;;;;14.50;9.20;;;;;;;5.57;100.00;102114.47;107826;1260;57693;-71
2022/10/27 03:48:56;;;;;;;14.60;9.10;;;;;;;5.56;100.00;102117.42;107857;1259;74160;-70
2022/10/27 03:51:25;;;;;;;19.10;12.60;;;;;;;5.57;100.00;102117.76;107979;1267;61416;-71
2022/10/27 03:53:55;;;;;;;61.00;32.30;;;;;;;5.61;100.00;102117.64;107851;1256;69755;-70
2022/10/27 03:56:24;;;;;;;19.30;12.40;;;;;;;5.65;100.00;102118.90;107752;1255;63109;-70
2022/10/27 03:58:53;;;;;;;15.30;11.10;;;;;;;5.71;100.00;102119.25;107824;1260;57686;-70
2022/10/27 04:01:22;;;;;;;17.30;10.10;;;;;;;5.74;100.00;102118.48;107845;1264;60395;-71
2022/10/27 04:03:51;;;;;;;17.10;10.50;;;;;;;5.73;100.00;102119.17;107829;1260;73097;-70
2022/10/27 04:06:19;;;;;;;17.20;10.20;;;;;;;5.75;100.00;102115.65;107933;1251;71731;-70
2022/10/27 04:08:48;;;;;;;17.10;10.20;;;;;;;5.77;100.00;102120.10;107797;1260;60247;-70
2022/10/27 04:11:16;;;;;;;16.00;10.20;;;;;;;5.77;100.00;102124.07;107738;1260;72983;-70
2022/10/27 04:13:46;;;;;;;20.60;9.60;;;;;;;5.75;100.00;102129.48;107809;1255;58237;-71
2022/10/27 04:16:14;;;;;;;19.00;9.80;;;;;;;5.76;100.00;102128.26;107761;1263;61195;-71
2022/10/27 04:18:43;;;;;;;16.00;11.20;;;;;;;5.76;100.00;102130.33;107786;1266;64222;-74
2022/10/27 04:21:11;;;;;;;19.20;10.40;;;;;;;5.75;100.00;102133.29;107898;1255;70394;-70
2022/10/27 04:23:40;;;;;;;16.80;9.90;;;;;;;5.71;100.00;102132.22;107795;1260;59571;-71
2022/10/27 04:26:09;;;;;;;16.40;10.10;;;;;;;5.68;100.00;102132.30;107802;1263;62365;-71
2022/10/27 04:28:37;;;;;;;18.30;10.40;;;;;;;5.68;100.00;102138.17;107697;1260;61200;-72
2022/10/27 04:31:06;;;;;;;18.00;10.10;;;;;;;5.71;100.00;102137.92;107720;1256;58161;-71
2022/10/27 04:33:35;;;;;;;20.00;10.40;;;;;;;5.70;100.00;102140.54;107791;1260;72410;-71
2022/10/27 04:36:05;;;;;;;21.40;11.20;;;;;;;5.67;99.97;102141.65;107817;1255;72263;-70
2022/10/27 04:38:34;;;;;;;20.40;10.60;;;;;;;5.64;100.00;102146.08;107781;1264;70386;-70
2022/10/27 04:41:04;;;;;;;21.60;11.70;;;;;;;5.60;100.00;102150.51;107808;1259;74227;-71
2022/10/27 04:43:33;;;;;;;26.00;13.40;;;;;;;5.56;100.00;102153.20;107825;1263;60924;-71
2022/10/27 04:46:01;;;;;;;22.00;13.10;;;;;;;5.53;100.00;102155.18;107697;1260;59295;-71
2022/10/27 04:48:30;;;;;;;24.60;12.00;;;;;;;5.50;100.00;102154.06;107608;1268;63581;-70
2022/10/27 04:50:59;;;;;;;22.70;10.20;;;;;;;5.47;100.00;102158.98;107828;1261;72092;-71
2022/10/27 04:53:27;;;;;;;18.90;10.90;;;;;;;5.42;100.00;102161.72;107823;1260;60897;-72
2022/10/27 04:55:56;;;;;;;15.50;9.40;;;;;;;5.38;100.00;102163.57;107715;1260;63230;-73
2022/10/27 04:58:24;;;;;;;18.40;9.90;;;;;;;5.35;100.00;102167.96;107662;1260;62056;-71
2022/10/27 05:00:53;;;;;;;16.50;9.30;;;;;;;5.31;100.00;102168.07;107786;1260;58270;-72
2022/10/27 05:03:22;;;;;;;19.10;9.20;;;;;;;5.28;100.00;102173.68;107761;1260;73502;-72
2022/10/27 05:05:50;;;;;;;17.40;10.20;;;;;;;5.26;100.00;102175.45;107924;1261;61841;-72
2022/10/27 05:08:19;;;;;;;21.50;11.50;;;;;;;5.26;100.00;102179.25;107816;1260;69759;-71
2022/10/27 05:10:47;;;;;;;24.70;10.70;;;;;;;5.30;100.00;102179.84;107776;1260;64915;-71
2022/10/27 05:13:16;;;;;;;23.60;10.70;;;;;;;5.39;100.00;102183.94;107800;1269;57733;-72
2022/10/27 05:15:44;;;;;;;24.40;13.70;;;;;;;5.45;100.00;102189.98;107731;1260;61554;-72
2022/10/27 05:18:13;;;;;;;23.20;13.30;;;;;;;5.50;100.00;102188.99;107843;1251;62847;-73
2022/10/27 05:20:41;;;;;;;30.40;14.10;;;;;;;5.54;100.00;102189.20;107943;1255;71326;-71
2022/10/27 05:23:10;;;;;;;25.00;14.50;;;;;;;5.57;100.00;102189.29;107626;1261;60216;-71
2022/10/27 05:25:39;;;;;;;25.60;13.90;;;;;;;5.63;100.00;102186.22;107762;1266;62383;-71
2022/10/27 05:28:10;;;;;;;20.20;13.50;;;;;;;5.69;100.00;102191.21;107651;1270;60792;-72
2022/10/27 05:30:38;;;;;;;23.50;14.00;;;;;;;5.75;100.00;102196.23;107735;1264;61175;-71
2022/10/27 05:33:07;;;;;;;27.00;14.40;;;;;;;5.86;100.00;102199.39;107824;1263;64073;-71
2022/10/27 05:35:36;;;;;;;25.40;13.90;;;;;;;6.01;100.00;102205.01;107886;1253;60761;-72
2022/10/27 05:38:04;;;;;;;25.20;14.80;;;;;;;6.16;100.00;102205.61;107646;1265;69605;-73
2022/10/27 05:40:33;;;;;;;26.80;14.40;;;;;;;6.25;99.93;102208.25;107842;1261;64403;-71
2022/10/27 05:43:03;;;;;;;34.50;13.90;;;;;;;6.34;99.51;102218.90;107793;1267;62648;-72
2022/10/27 05:45:31;;;;;;;29.10;14.40;;;;;;;6.39;99.05;102220.30;107868;1257;58254;-74
2022/10/27 05:48:06;;;;;;;22.30;13.90;;;;;;;6.48;98.93;102227.13;107664;1260;73004;-74
2022/10/27 05:50:35;;;;;;;20.60;13.00;;;;;;;6.51;99.09;102226.67;107941;1261;61113;-72
2022/10/27 05:53:03;;;;;;;31.20;21.50;;;;;;;6.56;98.82;102231.88;107486;1267;61575;-71
2022/10/27 05:55:34;;;;;;;23.60;12.80;;;;;;;6.62;99.00;102235.52;107597;1263;62854;-72
2022/10/27 05:58:05;;;;;;;25.90;13.90;;;;;;;6.68;99.11;102239.99;107769;1264;57956;-72
2022/10/27 06:00:37;;;;;;;24.50;14.10;;;;;;;6.74;98.89;102246.20;107574;1266;60341;-72
2022/10/27 06:03:12;;;;;;;24.50;15.30;;;;;;;6.82;98.75;102243.70;107779;1263;74729;-74
2022/10/27 06:05:41;;;;;;;22.70;14.50;;;;;;;6.93;98.45;102243.86;107982;1253;61839;-72
2022/10/27 06:08:10;;;;;;;27.80;15.80;;;;;;;7.03;98.22;102247.86;107797;1263;59914;-73
2022/10/27 06:10:38;;;;;;;33.90;14.80;;;;;;;7.14;98.19;102245.23;107773;1269;73206;-72
2022/10/27 06:13:12;;;;;;;22.80;12.40;;;;;;;7.25;97.56;102243.50;107712;1261;57739;-73
2022/10/27 06:15:41;;;;;;;21.90;11.80;;;;;;;7.36;97.60;102243.29;107661;1261;60279;-71
2022/10/27 06:18:14;;;;;;;24.00;13.10;;;;;;;7.45;97.32;102242.27;107657;1262;65376;-72
2022/10/27 06:20:43;;;;;;;27.50;12.80;;;;;;;7.55;96.97;102242.77;107926;1255;61520;-72
2022/10/27 06:23:12;;;;;;;20.60;10.40;;;;;;;7.73;96.55;102243.54;107607;1266;59302;-73
2022/10/27 06:25:41;;;;;;;20.10;11.30;;;;;;;7.83;96.01;102243.70;107688;1260;62642;-74
2022/10/27 06:28:09;;;;;;;26.30;13.00;;;;;;;7.86;95.88;102242.88;107773;1260;62082;-73
2022/10/27 06:30:38;;;;;;;29.10;14.10;;;;;;;7.87;96.51;102237.64;107855;1258;57694;-73
2022/10/27 06:33:07;;;;;;;18.50;11.70;;;;;;;7.97;96.02;102237.61;107793;1259;74094;-73
2022/10/27 06:35:35;;;;;;;20.20;11.60;;;;;;;8.15;95.59;102235.89;107858;1255;72625;-73
2022/10/27 06:38:04;;;;;;;20.80;12.30;;;;;;;8.19;94.96;102241.48;107854;1264;69539;-73
2022/10/27 06:40:32;;;;;;;24.70;13.20;;;;;;;8.24;95.08;102243.71;107764;1263;73471;-72
2022/10/27 06:43:01;;;;;;;21.40;13.50;;;;;;;8.39;93.65;102242.81;107752;1269;57707;-75
2022/10/27 06:45:40;;;;;;;23.50;13.10;;;;;;;8.54;92.94;102240.33;107835;1260;58232;-73
2022/10/27 06:48:09;;;;;;;20.50;12.70;;;;;;;8.65;92.60;102239.89;107742;1267;62926;-74
2022/10/27 06:50:38;;;;;;;20.30;12.80;;;;;;;8.82;91.99;102239.91;107746;1261;60736;-73
2022/10/27 06:53:06;;;;;;;23.20;13.00;;;;;;;9.08;92.32;102244.05;107826;1258;71209;-72
2022/10/27 06:55:35;;;;;;;24.10;11.90;;;;;;;9.21;91.11;102247.84;107750;1265;63513;-73
2022/10/27 06:58:04;;;;;;;17.80;11.70;;;;;;;9.27;90.43;102253.83;107837;1260;63247;-74
2022/10/27 07:00:32;;;;;;;21.40;11.20;;;;;;;9.31;90.12;102253.15;107819;1256;60541;-73
2022/10/27 07:03:08;;;;;;;23.30;12.10;;;;;;;9.36;90.17;102251.73;107909;1253;63714;-74
2022/10/27 07:05:39;;;;;;;22.90;13.70;;;;;;;9.44;89.62;102252.96;108008;1257;61502;-72
2022/10/27 07:08:08;;;;;;;24.40;12.80;;;;;;;9.48;89.44;102254.83;107923;1264;59892;-73
2022/10/27 07:10:36;;;;;;;24.30;12.60;;;;;;;9.51;89.30;102251.61;107811;1258;73501;-73
2022/10/27 07:13:05;;;;;;;21.30;12.90;;;;;;;9.61;90.05;102255.17;107852;1260;57655;-73
2022/10/27 07:15:35;;;;;;;23.60;12.80;;;;;;;9.72;88.91;102258.33;107933;1263;60294;-72
2022/10/27 07:18:07;;;;;;;21.00;10.80;;;;;;;9.88;89.21;102260.55;107826;1257;63302;-74
2022/10/27 07:20:38;;;;;;;17.10;11.60;;;;;;;10.04;88.82;102260.34;107743;1254;358010;-74
2022/10/27 07:23:09;;;;;;;21.10;12.80;;;;;;;10.19;87.99;102262.81;107708;1270;69451;-74
2022/10/27 07:25:38;;;;;;;22.90;12.00;;;;;;;10.31;87.35;102265.77;107759;1264;63035;-73
2022/10/27 07:28:07;;;;;;;22.50;11.50;;;;;;;10.43;86.56;102266.24;107802;1260;62083;-73
2022/10/27 07:30:39;;;;;;;20.60;11.40;;;;;;;10.56;85.76;102265.45;107858;1258;59754;-74
2022/10/27 07:33:07;;;;;;;18.90;10.90;;;;;;;10.68;85.38;102269.05;107923;1263;74724;-73
2022/10/27 07:35:37;;;;;;;19.60;10.50;;;;;;;10.80;84.19;102273.20;108003;1259;61851;-73
2022/10/27 07:38:06;;;;;;;21.60;11.40;;;;;;;10.89;83.99;102276.43;107795;1260;70412;-72
2022/10/27 07:40:35;;;;;;;18.20;9.90;;;;;;;10.98;83.88;102280.54;107806;1260;63062;-72
2022/10/27 07:43:03;;;;;;;17.90;10.00;;;;;;;11.10;83.37;102281.66;107752;1266;62826;-73
2022/10/27 07:45:40;;;;;;;28.80;11.00;;;;;;;11.16;83.38;102283.83;107826;1259;57924;-73
2022/10/27 07:48:14;;;;;;;22.40;10.90;;;;;;;11.26;82.87;102287.85;107792;1263;74077;-74
2022/10/27 07:50:44;;;;;;;18.40;11.50;;;;;;;11.43;83.37;102287.69;107875;1259;61085;-73
2022/10/27 07:53:16;;;;;;;17.60;9.90;;;;;;;11.53;82.55;102284.88;107700;1264;69442;-74
2022/10/27 07:55:45;;;;;;;19.30;9.50;;;;;;;11.71;81.77;102289.19;107980;1254;63581;-73
2022/10/27 07:58:16;;;;;;;17.50;9.20;;;;;;;11.81;81.20;102286.42;107801;1255;62879;-74
2022/10/27 08:00:47;;;;;;;14.50;8.60;;;;;;;11.87;80.77;102289.94;107625;1260;61595;-72
2022/10/27 08:03:22;;;;;;;20.80;9.40;;;;;;;11.99;80.09;102291.11;107575;1267;74334;-72
2022/10/27 08:05:51;;;;;;;15.90;9.00;;;;;;;12.05;80.07;102293.23;107665;1264;71007;-73
2022/10/27 08:08:20;;;;;;;11.30;8.30;;;;;;;12.17;78.67;102292.56;107679;1270;59469;-73
2022/10/27 08:10:49;;;;;;;11.00;7.20;;;;;;;12.25;77.65;102294.60;107683;1267;63164;-74
2022/10/27 08:13:18;;;;;;;11.00;7.80;;;;;;;12.28;77.26;102302.08;107842;1267;62893;-73
2022/10/27 08:15:47;;;;;;;14.10;9.40;;;;;;;12.31;77.71;102298.98;107788;1263;57689;-73
2022/10/27 08:18:16;;;;;;;12.70;8.30;;;;;;;12.46;77.54;102293.42;107691;1258;64652;-73
2022/10/27 08:20:46;;;;;;;15.40;9.10;;;;;;;12.61;77.62;102291.00;107975;1254;72134;-77
2022/10/27 08:23:19;;;;;;;11.30;8.40;;;;;;;12.76;77.37;102289.98;107767;1270;69208;-75
2022/10/27 08:25:47;;;;;;;12.40;8.20;;;;;;;13.03;77.89;102287.20;107806;1263;74036;-76
2022/10/27 08:28:16;;;;;;;14.40;8.10;;;;;;;13.31;76.12;102283.70;107791;1264;57660;-75
2022/10/27 08:30:45;;;;;;;14.60;9.20;;;;;;;13.52;75.92;102289.27;107603;1263;59608;-82
2022/10/27 08:33:21;;;;;;;14.30;8.30;;;;;;;13.79;75.41;102286.60;107788;1267;74781;-76
2022/10/27 08:35:50;;;;;;;11.60;8.10;;;;;;;13.98;74.83;102285.20;107984;1267;62023;-75
2022/10/27 08:38:20;;;;;;;10.30;7.50;;;;;;;14.17;74.70;102282.67;107784;1266;70268;-75
2022/10/27 08:41:09;;;;;;;13.40;8.00;;;;;;;14.20;73.17;102277.91;107812;1264;73563;-74
2022/10/27 08:44:14;;;;;;;12.60;7.80;;;;;;;14.21;72.43;102281.00;107789;1269;62253;-74
2022/10/27 08:46:51;;;;;;;9.50;7.20;;;;;;;14.20;71.78;102284.75;107892;1267;58152;-75
2022/10/27 08:49:28;;;;;;;11.10;7.60;;;;;;;14.29;72.01;102284.03;107875;1259;72290;-75
2022/10/27 08:52:32;;;;;;;12.60;7.10;;;;;;;14.38;71.38;102285.22;107876;1256;70629;-75
2022/10/27 08:55:11;;;;;;;11.00;7.70;;;;;;;14.36;71.14;102287.21;107888;1258;60009;-80
2022/10/27 08:58:05;;;;;;;11.80;8.00;;;;;;;14.46;71.70;102293.23;107921;1261;73387;-75
2022/10/27 09:00:49;;;;;;;10.90;7.10;;;;;;;14.58;71.52;102294.10;107769;1260;58192;-74
2022/10/27 09:04:00;;;;;;;11.30;7.20;;;;;;;14.68;71.48;102295.58;107754;1270;60386;-76
2022/10/27 09:06:55;;;;;;;11.70;7.40;;;;;;;14.70;70.00;102292.10;107742;1259;72946;-74
2022/10/27 09:09:33;;;;;;;9.80;7.50;;;;;;;14.56;69.86;102287.09;107808;1261;70713;-75
2022/10/27 09:12:20;;;;;;;8.80;6.70;;;;;;;14.57;70.00;102286.62;107673;1263;68676;-74
2022/10/27 09:15:35;;;;;;;11.70;7.30;;;;;;;14.56;70.20;102285.77;107602;1263;74568;-74
2022/10/27 09:18:45;;;;;;;12.30;7.30;;;;;;;14.68;69.58;102283.67;107676;1260;58365;-77
2022/10/27 09:21:25;;;;;;;14.10;7.70;;;;;;;14.76;69.58;102279.94;107660;1263;60070;-73
2022/10/27 09:24:03;;;;;;;9.40;6.30;;;;;;;14.80;68.99;102278.44;107710;1259;62921;-77
2022/10/27 09:26:32;;;;;;;10.50;7.30;;;;;;;14.81;68.53;102271.58;107784;1255;71290;-77
2022/10/27 09:29:17;;;;;;;10.90;6.40;;;;;;;14.82;68.80;102276.89;107489;1261;60173;-76
2022/10/27 09:32:23;;;;;;;9.30;7.00;;;;;;;14.81;68.73;102276.09;107626;1266;72837;-75
2022/10/27 09:35:08;;;;;;;13.20;7.50;;;;;;;14.78;69.22;102271.95;107898;1255;57718;-75
2022/10/27 09:37:39;;;;;;;10.60;6.90;;;;;;;14.83;69.30;102277.73;107808;1269;60409;-75
2022/10/27 09:40:17;;;;;;;12.30;6.60;;;;;;;14.89;69.12;102274.88;107717;1263;64198;-75
2022/10/27 09:42:49;;;;;;;11.00;7.30;;;;;;;14.94;68.88;102277.40;107849;1264;72042;-77
2022/10/27 09:45:20;;;;;;;;;;;;;;;15.12;68.35;102273.75;107786;1260;69359;-74
2022/10/27 09:47:53;;;;;;;11.80;6.80;;;;;;;15.24;67.90;102273.08;107694;1260;73568;-75
2022/10/27 09:50:43;;;;;;;11.30;7.10;;;;;;;15.34;67.14;102264.87;107653;1261;60255;-74
2022/10/27 09:53:42;;;;;;;11.20;6.60;;;;;;;15.37;67.17;102259.06;107753;1271;57729;-74
2022/10/27 09:56:15;;;;;;;14.20;7.50;;;;;;;15.40;67.54;102255.15;107717;1260;74287;-75
2022/10/27 09:59:17;;;;;;;11.10;6.10;;;;;;;15.55;67.05;102257.65;107978;1264;61495;-76
2022/10/27 10:01:54;;;;;;;10.00;6.40;;;;;;;15.64;66.39;102253.38;107841;1266;59916;-75
2022/10/27 10:04:35;;;;;;;10.30;6.70;;;;;;;15.82;65.59;102260.04;107653;1268;73094;-76
2022/10/27 10:07:06;;;;;;;12.80;6.50;;;;;;;15.84;65.05;102253.51;107803;1250;60835;-74
2022/10/27 10:09:40;;;;;;;11.00;6.50;;;;;;;16.05;64.78;102253.61;107708;1256;61435;-74
2022/10/27 10:12:24;;;;;;;11.50;6.00;;;;;;;16.16;66.39;102248.45;107710;1255;74660;-76
2022/10/27 10:15:11;;;;;;;10.80;6.00;;;;;;;16.43;65.87;102245.60;107964;1269;61903;-77
2022/10/27 10:17:50;;;;;;;8.30;5.70;;;;;;;16.66;64.03;102245.70;107917;1268;59918;-75
2022/10/27 10:20:41;;;;;;;9.50;5.80;;;;;;;16.88;62.82;102243.95;107922;1260;63868;-75
2022/10/27 10:23:30;;;;;;;8.40;5.80;;;;;;;17.08;61.13;102245.77;107932;1258;58182;-75
2022/10/27 10:26:04;;;;;;;7.90;5.80;;;;;;;17.21;59.42;102240.29;107904;1260;58160;-76
2022/10/27 10:28:38;;;;;;;12.00;6.00;;;;;;;17.55;60.14;102240.20;107767;1264;63809;-77
2022/10/27 10:31:11;;;;;;;8.20;5.30;;;;;;;17.96;59.80;102236.66;107997;1260;60746;-76
2022/10/27 10:33:46;;;;;;;9.60;5.30;;;;;;;18.11;58.12;102234.77;107678;1257;70468;-75
2022/10/27 10:36:40;;;;;;;7.90;4.60;;;;;;;18.29;57.26;102238.23;108043;1258;74621;-76
2022/10/27 10:39:34;;;;;;;14.00;5.20;;;;;;;18.53;55.20;102239.27;108022;1255;58231;-75
2022/10/27 10:42:09;;;;;;;6.90;4.30;;;;;;;18.76;55.00;102235.84;107854;1267;57765;-76
2022/10/27 10:44:38;;;;;;;5.00;3.40;;;;;;;19.01;54.42;102237.29;107967;1264;63649;-75
2022/10/27 10:47:30;;;;;;;6.90;3.10;;;;;;;19.19;51.68;102233.08;108072;1255;60856;-75
2022/10/27 10:50:01;;;;;;;6.10;3.30;;;;;;;19.14;50.46;102230.65;107868;1264;59211;-74
2022/10/27 10:52:37;;;;;;;7.70;3.10;;;;;;;18.97;50.86;102229.05;108045;1259;63926;-75
2022/10/27 10:55:16;;;;;;;3.90;2.90;;;;;;;19.50;50.15;102223.55;107950;1255;62193;-75
2022/10/27 10:57:47;;;;;;;5.90;2.90;;;;;;;19.77;49.33;102226.67;107864;1268;60680;-75
2022/10/27 11:00:18;;;;;;;8.20;3.10;;;;;;;19.57;48.98;102230.73;107824;1253;66349;-75
2022/10/27 11:03:00;;;;;;;6.80;3.20;;;;;;;19.83;48.42;102229.16;107851;1265;71844;-75
2022/10/27 11:05:35;;;;;;;5.20;3.30;;;;;;;19.49;49.45;102228.24;107824;1263;71291;-75
2022/10/27 11:08:05;;;;;;;5.20;3.20;;;;;;;19.41;49.30;102228.23;107810;1270;62371;-74
2022/10/27 11:10:41;;;;;;;5.20;3.30;;;;;;;18.89;50.07;102231.18;107716;1263;60304;-74
2022/10/27 11:13:29;;;;;;;6.20;3.40;;;;;;;19.03;49.99;102228.64;107735;1267;57808;-76
2022/10/27 11:16:02;;;;;;;5.50;3.80;;;;;;;18.91;50.52;102229.31;107855;1263;63637;-75
2022/10/27 11:18:54;;;;;;;5.90;4.30;;;;;;;18.70;50.78;102229.02;107948;1270;61602;-75
2022/10/27 11:22:03;;;;;;;7.70;4.90;;;;;;;18.40;51.26;102232.00;107841;1260;59869;-75
2022/10/27 11:24:52;;;;;;;6.80;4.10;;;;;;;18.65;51.40;102229.86;107814;1270;63359;-76
2022/10/27 11:27:38;;;;;;;7.30;4.50;;;;;;;19.16;51.00;102232.25;107834;1260;60127;-76
2022/10/27 11:30:24;;;;;;;5.70;4.10;;;;;;;19.19;50.03;102227.42;107842;1263;57660;-76
2022/10/27 11:33:34;;;;;;;7.20;4.00;;;;;;;19.35;49.53;102224.78;107891;1260;63352;-75
2022/10/27 11:36:38;;;;;;;10.90;4.60;;;;;;;19.69;49.81;102219.02;108013;1255;71821;-75
2022/10/27 11:39:14;;;;;;;8.00;4.50;;;;;;;19.79;49.24;102219.59;107828;1264;70082;-75
2022/10/27 11:41:50;;;;;;;5.90;4.10;;;;;;;19.97;48.41;102218.54;107741;1266;63527;-74
2022/10/27 11:44:51;;;;;;;10.70;4.40;;;;;;;19.99;48.67;102213.09;107906;1267;58340;-76